Time;durP1;ratioP1;P1;durP2;ratioP2;P2;SDS_P1;SDS_P2;PMS_P1;PMS_P2;Temp;Humidity;BMP_temperature;BMP_pressure;BME280_temperature;BME280_humidity;BME280_pressure;Samples;Min_cycle;Max_cycle;Signal;HPM_P1;HPM_P2
2022/06/23 00:00:29;;;;;;;3.17;2.97;;;;;;;;;;4988641;28;20276;-56
2022/06/23 00:02:55;;;;;;;3.10;2.80;;;;;;;;;;4982148;28;20190;-55
2022/06/23 00:05:21;;;;;;;3.23;2.93;;;;;;;;;;4988841;28;20249;-55
2022/06/23 00:07:54;;;;;;;4.43;3.00;;;;;;;;;;4987912;28;20222;-56
2022/06/23 00:10:21;;;;;;;2.97;2.77;;;;;;;;;;4983638;28;20189;-56
2022/06/23 00:12:47;;;;;;;3.00;2.80;;;;;;;;;;4990750;28;20885;-56
2022/06/23 00:15:13;;;;;;;3.03;2.83;;;;;;;;;;4980606;28;20197;-55
2022/06/23 00:17:42;;;;;;;3.23;3.00;;;;;;;;;;4986554;28;20186;-54
2022/06/23 00:20:19;;;;;;;3.37;2.90;;;;;;;;;;4985711;28;20246;-55
2022/06/23 00:22:46;;;;;;;3.50;2.90;;;;;;;;;;4983392;28;20192;-55
2022/06/23 00:25:28;;;;;;;5.33;3.30;;;;;;;;;;4984479;28;20597;-55
2022/06/23 00:27:54;;;;;;;3.20;2.90;;;;;;;;;;4992361;28;20190;-55
2022/06/23 00:30:20;;;;;;;3.00;2.80;;;;;;;;;;4986862;28;20635;-56
2022/06/23 00:32:46;;;;;;;3.00;2.80;;;;;;;;;;4993261;28;20186;-55
2022/06/23 00:35:12;;;;;;;2.73;2.53;;;;;;;;;;4989978;28;20250;-55
2022/06/23 00:37:38;;;;;;;3.33;3.03;;;;;;;;;;4994071;28;20186;-56
2022/06/23 00:40:11;;;;;;;3.27;3.07;;;;;;;;;;4984269;28;20198;-56
2022/06/23 00:42:49;;;;;;;4.07;3.40;;;;;;;;;;4990697;28;20618;-56
2022/06/23 00:45:34;;;;;;;4.57;2.80;;;;;;;;;;4983070;28;21727;-56
2022/06/23 00:48:00;;;;;;;3.10;2.87;;;;;;;;;;4979616;28;20337;-55
2022/06/23 00:50:44;;;;;;;3.40;3.10;;;;;;;;;;4993344;28;20193;-56
2022/06/23 00:53:13;;;;;;;3.60;3.30;;;;;;;;;;4991288;28;20886;-56
2022/06/23 00:55:59;;;;;;;3.17;2.90;;;;;;;;;;4983624;28;20233;-56
2022/06/23 00:58:31;;;;;;;3.60;3.30;;;;;;;;;;4982318;28;20202;-55
2022/06/23 01:01:03;;;;;;;5.30;3.30;;;;;;;;;;4976946;28;20309;-54
2022/06/23 01:03:38;;;;;;;3.40;3.10;;;;;;;;;;4985398;28;20193;-57
2022/06/23 01:06:15;;;;;;;3.43;3.13;;;;;;;;;;4992297;28;20214;-56
2022/06/23 01:08:52;;;;;;;3.70;3.40;;;;;;;;;;4990811;28;20204;-54
2022/06/23 01:11:29;;;;;;;3.20;2.90;;;;;;;;;;4989499;28;20181;-55
2022/06/23 01:13:58;;;;;;;3.27;3.00;;;;;;;;;;4987824;28;20185;-57
2022/06/23 01:16:30;;;;;;;3.50;3.20;;;;;;;;;;4985379;28;20194;-57
2022/06/23 01:18:59;;;;;;;3.07;2.87;;;;;;;;;;4985225;28;20667;-56
2022/06/23 01:21:37;;;;;;;5.17;3.30;;;;;;;;;;4989331;28;20243;-56
2022/06/23 01:24:10;;;;;;;3.50;3.03;;;;;;;;;;4985238;28;20190;-55
2022/06/23 01:26:42;;;;;;;3.50;3.20;;;;;;;;;;4985586;28;21145;-56
2022/06/23 01:29:18;;;;;;;2.90;2.70;;;;;;;;;;4986102;28;20268;-56
2022/06/23 01:31:45;;;;;;;3.00;2.80;;;;;;;;;;4987945;28;20747;-54
2022/06/23 01:34:17;;;;;;;3.07;2.87;;;;;;;;;;4982930;28;20186;-55
2022/06/23 01:36:51;;;;;;;3.37;3.10;;;;;;;;;;4974191;28;20197;-55
2022/06/23 01:39:19;;;;;;;3.63;3.27;;;;;;;;;;4980488;28;20189;-55
2022/06/23 01:41:53;;;;;;;3.47;3.10;;;;;;;;;;4985727;28;20190;-57
2022/06/23 01:44:27;;;;;;;4.17;3.00;;;;;;;;;;4991120;28;20194;-55
2022/06/23 01:46:53;;;;;;;3.67;3.37;;;;;;;;;;4990467;28;20328;-56
2022/06/23 01:49:27;;;;;;;3.70;3.40;;;;;;;;;;4986858;28;20276;-55
2022/06/23 01:51:54;;;;;;;3.03;2.83;;;;;;;;;;4986278;28;20292;-55
2022/06/23 01:54:20;;;;;;;3.30;3.00;;;;;;;;;;4984006;28;20193;-55
2022/06/23 01:56:49;;;;;;;3.97;3.60;;;;;;;;;;4983990;28;20245;-55
2022/06/23 01:59:47;;;;;;;4.27;3.30;;;;;;;;;;4986291;28;20185;-56
2022/06/23 02:02:22;;;;;;;3.43;3.13;;;;;;;;;;4961646;28;20297;-55
2022/06/23 02:04:51;;;;;;;3.40;3.20;;;;;;;;;;4980058;28;20216;-54
2022/06/23 02:07:43;;;;;;;4.20;3.77;;;;;;;;;;4982132;28;20659;-54
2022/06/23 02:10:19;;;;;;;3.47;2.87;;;;;;;;;;4986498;28;20656;-55
2022/06/23 02:12:47;;;;;;;3.80;3.50;;;;;;;;;;4983301;28;20571;-56
2022/06/23 02:15:18;;;;;;;3.53;3.20;;;;;;;;;;4984371;28;20201;-56
2022/06/23 02:17:52;;;;;;;3.20;2.90;;;;;;;;;;4991312;28;20663;-57
2022/06/23 02:20:18;;;;;;;3.33;3.03;;;;;;;;;;4984407;28;20189;-55
2022/06/23 02:22:44;;;;;;;3.43;3.23;;;;;;;;;;4985031;28;20185;-55
2022/06/23 02:25:15;;;;;;;4.53;3.20;;;;;;;;;;4983055;28;20273;-54
2022/06/23 02:27:44;;;;;;;4.40;3.13;;;;;;;;;;4990971;28;20186;-54
2022/06/23 02:30:13;;;;;;;3.70;3.40;;;;;;;;;;4984790;28;20205;-56
2022/06/23 02:32:48;;;;;;;3.30;2.87;;;;;;;;;;4993177;28;21599;-56
2022/06/23 02:35:20;;;;;;;3.10;2.90;;;;;;;;;;4991477;28;20994;-55
2022/06/23 02:37:51;;;;;;;4.07;3.30;;;;;;;;;;4996062;28;20193;-54
2022/06/23 02:40:23;;;;;;;3.47;3.17;;;;;;;;;;4984698;28;20190;-55
2022/06/23 02:42:54;;;;;;;4.27;3.27;;;;;;;;;;4985690;28;20205;-55
2022/06/23 02:45:35;;;;;;;3.60;3.20;;;;;;;;;;4983761;28;20229;-55
2022/06/23 02:48:07;;;;;;;3.23;2.80;;;;;;;;;;4981394;28;20184;-55
2022/06/23 02:50:50;;;;;;;4.63;3.13;;;;;;;;;;4985448;28;20686;-54
2022/06/23 02:53:30;;;;;;;3.60;3.30;;;;;;;;;;4983100;28;20540;-56
2022/06/23 02:55:58;;;;;;;3.50;3.20;;;;;;;;;;4996215;28;20190;-54
2022/06/23 02:58:43;;;;;;;3.40;3.10;;;;;;;;;;4981049;28;20200;-54
2022/06/23 03:01:45;;;;;;;3.63;3.10;;;;;;;;;;4982644;28;20193;-55
2022/06/23 03:04:23;;;;;;;3.33;3.03;;;;;;;;;;4964068;28;20225;-55
2022/06/23 03:07:04;;;;;;;4.53;3.30;;;;;;;;;;4989352;28;20253;-56
2022/06/23 03:09:32;;;;;;;3.13;2.87;;;;;;;;;;4977326;28;20193;-54
2022/06/23 03:12:03;;;;;;;5.07;3.23;;;;;;;;;;4982768;28;20562;-54
2022/06/23 03:14:48;;;;;;;4.93;3.77;;;;;;;;;;4987068;28;22849;-56
2022/06/23 03:17:20;;;;;;;3.60;3.30;;;;;;;;;;4982810;28;20232;-54
2022/06/23 03:19:55;;;;;;;3.70;3.40;;;;;;;;;;4984846;28;20557;-56
2022/06/23 03:22:23;;;;;;;4.87;3.27;;;;;;;;;;4990654;28;20189;-54
2022/06/23 03:24:58;;;;;;;3.53;3.10;;;;;;;;;;4990511;28;20201;-57
2022/06/23 03:27:34;;;;;;;5.13;3.63;;;;;;;;;;4985951;28;20568;-54
2022/06/23 03:30:07;;;;;;;3.23;2.90;;;;;;;;;;4988332;28;20190;-54
2022/06/23 03:32:41;;;;;;;3.73;3.30;;;;;;;;;;4988694;28;21108;-54
2022/06/23 03:35:23;;;;;;;3.20;3.00;;;;;;;;;;4985961;28;20185;-54
2022/06/23 03:37:56;;;;;;;4.43;3.93;;;;;;;;;;4983751;28;20722;-55
2022/06/23 03:43:32;;;;;;;3.93;3.43;;;;;;;;;;4990472;28;20233;-56
2022/06/23 03:46:01;;;;;;;3.70;3.40;;;;;;;;;;4983801;28;20272;-56
2022/06/23 03:48:29;;;;;;;3.50;2.93;;;;;;;;;;4991333;28;20193;-55
2022/06/23 03:51:04;;;;;;;4.20;3.10;;;;;;;;;;4989823;28;20194;-56
2022/06/23 03:53:31;;;;;;;3.63;3.33;;;;;;;;;;4983886;28;20223;-55
2022/06/23 03:56:10;;;;;;;3.77;3.40;;;;;;;;;;4991695;28;20186;-55
2022/06/23 03:58:45;;;;;;;4.40;3.30;;;;;;;;;;4989827;28;20233;-55
2022/06/23 04:01:11;;;;;;;3.07;2.87;;;;;;;;;;4985752;28;20189;-55
2022/06/23 04:03:38;;;;;;;3.10;2.90;;;;;;;;;;4982556;28;20198;-56
2022/06/23 04:06:12;;;;;;;4.03;3.27;;;;;;;;;;4990500;28;20853;-56
2022/06/23 04:08:44;;;;;;;4.10;3.70;;;;;;;;;;4990918;28;20993;-56
2022/06/23 04:14:00;;;;;;;3.03;2.83;;;;;;;;;;4976999;28;20288;-54
2022/06/23 04:16:26;;;;;;;3.60;3.17;;;;;;;;;;4985626;28;20197;-54
2022/06/23 04:18:52;;;;;;;4.97;3.10;;;;;;;;;;4986701;28;20241;-53
2022/06/23 04:21:20;;;;;;;3.90;3.37;;;;;;;;;;4983185;28;20746;-54
2022/06/23 04:23:49;;;;;;;4.80;3.50;;;;;;;;;;4970623;28;20221;-56
2022/06/23 04:26:23;;;;;;;3.13;2.83;;;;;;;;;;4988734;28;20325;-56
2022/06/23 04:28:50;;;;;;;4.17;3.20;;;;;;;;;;4993284;28;20542;-55
2022/06/23 04:31:20;;;;;;;4.20;3.30;;;;;;;;;;4989045;28;20182;-55
2022/06/23 04:33:47;;;;;;;3.63;3.33;;;;;;;;;;4990787;28;20212;-54
2022/06/23 04:36:32;;;;;;;3.50;3.20;;;;;;;;;;4980989;28;20265;-56
2022/06/23 04:39:06;;;;;;;3.80;3.50;;;;;;;;;;4982920;28;20665;-53
2022/06/23 04:41:35;;;;;;;4.20;3.90;;;;;;;;;;4985900;28;20224;-56
2022/06/23 04:44:01;;;;;;;4.03;3.73;;;;;;;;;;4976128;28;20550;-57
2022/06/23 04:46:27;;;;;;;3.10;2.90;;;;;;;;;;4985169;28;20283;-54
2022/06/23 04:49:12;;;;;;;5.20;3.27;;;;;;;;;;4985793;28;21726;-55
2022/06/23 04:51:39;;;;;;;4.80;3.57;;;;;;;;;;4990930;28;20268;-54
2022/06/23 04:54:11;;;;;;;3.80;3.50;;;;;;;;;;4977610;28;21122;-54
2022/06/23 04:56:41;;;;;;;3.93;3.63;;;;;;;;;;4969047;28;20557;-55
2022/06/23 04:59:26;;;;;;;3.70;3.30;;;;;;;;;;4987365;28;20193;-55
2022/06/23 05:01:53;;;;;;;4.47;3.40;;;;;;;;;;4980387;28;20177;-55
2022/06/23 05:04:33;;;;;;;4.13;3.30;;;;;;;;;;4984942;28;20598;-55
2022/06/23 05:06:59;;;;;;;3.23;3.03;;;;;;;;;;4980075;28;20808;-54
2022/06/23 05:09:31;;;;;;;3.60;3.40;;;;;;;;;;4986150;28;20280;-54
2022/06/23 05:11:59;;;;;;;3.90;3.50;;;;;;;;;;4990756;28;20252;-56
2022/06/23 05:14:44;;;;;;;3.80;3.50;;;;;;;;;;4989812;28;20201;-55
2022/06/23 05:17:14;;;;;;;4.13;3.70;;;;;;;;;;4987865;28;20732;-54
2022/06/23 05:19:40;;;;;;;3.77;3.47;;;;;;;;;;4992023;28;20670;-56
2022/06/23 05:22:17;;;;;;;4.47;4.03;;;;;;;;;;4986376;28;20193;-55
2022/06/23 05:24:44;;;;;;;4.00;3.63;;;;;;;;;;4993052;28;20208;-55
2022/06/23 05:27:18;;;;;;;3.90;3.60;;;;;;;;;;4991926;28;20208;-55
2022/06/23 05:29:45;;;;;;;4.50;3.90;;;;;;;;;;4986466;28;20260;-55
2022/06/23 05:32:14;;;;;;;4.27;3.27;;;;;;;;;;4989312;28;20298;-55
2022/06/23 05:34:45;;;;;;;5.27;3.63;;;;;;;;;;4979640;28;20270;-55
2022/06/23 05:37:23;;;;;;;4.80;3.47;;;;;;;;;;4987934;28;20198;-54
2022/06/23 05:39:50;;;;;;;4.60;3.37;;;;;;;;;;4991190;28;20655;-55
2022/06/23 05:42:21;;;;;;;3.60;3.30;;;;;;;;;;4987761;28;20205;-56
2022/06/23 05:44:48;;;;;;;3.60;3.30;;;;;;;;;;4980764;28;21310;-55
2022/06/23 05:47:14;;;;;;;4.97;3.27;;;;;;;;;;4988620;28;20241;-55
2022/06/23 05:49:43;;;;;;;3.93;3.53;;;;;;;;;;4985462;28;20609;-55
2022/06/23 05:52:26;;;;;;;4.17;3.10;;;;;;;;;;4990484;28;20304;-54
2022/06/23 05:54:54;;;;;;;4.00;3.60;;;;;;;;;;4985637;28;20193;-56
2022/06/23 05:57:21;;;;;;;4.40;3.30;;;;;;;;;;4991876;28;20717;-56
2022/06/23 05:59:50;;;;;;;4.10;3.33;;;;;;;;;;4990621;28;20221;-55
2022/06/23 06:02:25;;;;;;;3.60;3.30;;;;;;;;;;4991515;28;20194;-54
2022/06/23 06:04:52;;;;;;;4.57;3.77;;;;;;;;;;4989717;28;20221;-54
2022/06/23 06:07:19;;;;;;;6.03;3.50;;;;;;;;;;4987738;28;20304;-55
2022/06/23 06:09:45;;;;;;;3.67;3.37;;;;;;;;;;4994152;28;20273;-54
2022/06/23 06:12:13;;;;;;;5.63;3.57;;;;;;;;;;4990613;28;20192;-55
2022/06/23 06:14:40;;;;;;;4.10;3.70;;;;;;;;;;4994697;28;20182;-55
2022/06/23 06:17:06;;;;;;;3.60;3.30;;;;;;;;;;4991811;28;20272;-55
2022/06/23 06:19:32;;;;;;;4.60;3.70;;;;;;;;;;4988003;28;20210;-56
2022/06/23 06:21:59;;;;;;;4.20;3.77;;;;;;;;;;5005426;28;20200;-55
2022/06/23 06:24:35;;;;;;;5.37;3.40;;;;;;;;;;4985691;28;20233;-56
2022/06/23 06:27:01;;;;;;;4.00;3.40;;;;;;;;;;4980648;28;20225;-55
2022/06/23 06:29:30;;;;;;;5.07;3.80;;;;;;;;;;4981571;28;20242;-54
2022/06/23 06:32:02;;;;;;;6.60;4.30;;;;;;;;;;4989873;28;20182;-54
2022/06/23 06:34:32;;;;;;;8.30;4.27;;;;;;;;;;4989343;28;20536;-56
2022/06/23 06:36:58;;;;;;;4.30;3.90;;;;;;;;;;4994011;28;21412;-55
2022/06/23 06:39:26;;;;;;;7.23;4.27;;;;;;;;;;4989555;28;20201;-56
2022/06/23 06:41:54;;;;;;;4.63;4.13;;;;;;;;;;4989803;28;20197;-55
2022/06/23 06:44:20;;;;;;;6.73;4.10;;;;;;;;;;4989831;28;20581;-54
2022/06/23 06:46:46;;;;;;;4.50;4.07;;;;;;;;;;4982041;28;20245;-54
2022/06/23 06:49:13;;;;;;;6.73;4.40;;;;;;;;;;4979256;28;20650;-55
2022/06/23 06:51:40;;;;;;;4.63;4.07;;;;;;;;;;4983467;28;20603;-55
2022/06/23 06:54:18;;;;;;;4.83;4.40;;;;;;;;;;4992463;28;20193;-55
2022/06/23 06:56:45;;;;;;;4.82;4.18;;;;;;;;;;4981392;28;20564;-55
2022/06/23 06:59:24;;;;;;;6.03;4.75;;;;;;;;;;4979715;28;20730;-55
2022/06/23 07:01:53;;;;;;;11.38;4.90;;;;;;;;;;4982796;28;21212;-56
2022/06/23 07:04:25;;;;;;;8.15;3.97;;;;;;;;;;4989434;28;20205;-54
2022/06/23 07:07:12;;;;;;;8.05;4.53;;;;;;;;;;4994781;28;20233;-54
2022/06/23 07:09:49;;;;;;;6.15;4.57;;;;;;;;;;4992659;28;20182;-56
2022/06/23 07:12:26;;;;;;;8.30;4.40;;;;;;;;;;4996961;28;20190;-54
2022/06/23 07:15:11;;;;;;;6.28;3.97;;;;;;;;;;4992149;28;20687;-54
2022/06/23 07:17:47;;;;;;;8.60;4.80;;;;;;;;;;4993835;28;20190;-55
2022/06/23 07:20:25;;;;;;;7.15;4.85;;;;;;;;;;4992948;28;20681;-54
2022/06/23 07:22:52;;;;;;;5.32;4.82;;;;;;;;;;4995142;28;20589;-55
2022/06/23 07:25:23;;;;;;;4.82;4.32;;;;;;;;;;4993407;28;20186;-54
2022/06/23 07:27:51;;;;;;;6.57;4.57;;;;;;;;;;4992978;28;20243;-55
2022/06/23 07:30:37;;;;;;;5.00;4.30;;;;;;;;;;4991539;28;20548;-54
2022/06/23 07:33:05;;;;;;;5.70;4.38;;;;;;;;;;4988670;28;20546;-54
2022/06/23 07:35:39;;;;;;;7.13;4.70;;;;;;;;;;4989346;28;20178;-54
2022/06/23 07:38:08;;;;;;;6.47;4.22;;;;;;;;;;4996234;28;20193;-55
2022/06/23 07:40:37;;;;;;;7.30;4.18;;;;;;;;;;4998928;28;20208;-55
2022/06/23 07:43:14;;;;;;;6.43;4.70;;;;;;;;;;4998115;28;20682;-54
2022/06/23 07:45:42;;;;;;;5.28;4.78;;;;;;;;;;4993996;28;20229;-54
2022/06/23 07:48:08;;;;;;;5.85;4.40;;;;;;;;;;4991651;28;20256;-54
2022/06/23 07:50:34;;;;;;;5.22;4.70;;;;;;;;;;4993060;28;20237;-55
2022/06/23 07:53:00;;;;;;;5.65;4.63;;;;;;;;;;4991453;28;20548;-55
2022/06/23 07:55:28;;;;;;;6.88;4.80;;;;;;;;;;4994267;28;20197;-54
2022/06/23 07:57:54;;;;;;;9.20;4.63;;;;;;;;;;4994956;28;20620;-54
2022/06/23 08:00:20;;;;;;;9.00;4.78;;;;;;;;;;4993781;28;20196;-54
2022/06/23 08:02:47;;;;;;;5.85;4.30;;;;;;;;;;4982569;28;22294;-54
2022/06/23 08:05:18;;;;;;;4.32;3.90;;;;;;;;;;4976470;28;22272;-55
2022/06/23 08:07:44;;;;;;;4.00;3.17;;;;;;;;;;4992717;28;20198;-55
2022/06/23 08:10:11;;;;;;;6.85;4.80;;;;;;;;;;4993719;28;20942;-55
2022/06/23 08:12:55;;;;;;;8.07;5.18;;;;;;;;;;4994145;28;20527;-57
2022/06/23 08:18:34;;;;;;;5.22;4.30;;;;;;;;;;4996271;28;20191;-57
2022/06/23 08:21:08;;;;;;;9.35;5.07;;;;;;;;;;4981875;28;20488;-55
2022/06/23 08:23:38;;;;;;;8.57;5.07;;;;;;;;;;4984161;28;20658;-56
2022/06/23 08:26:05;;;;;;;12.00;5.35;;;;;;;;;;4975575;28;20198;-56
2022/06/23 08:28:31;;;;;;;6.25;4.88;;;;;;;;;;4987362;28;20248;-57
2022/06/23 08:30:57;;;;;;;6.60;4.95;;;;;;;;;;4992857;28;20177;-54
2022/06/23 08:33:24;;;;;;;5.57;4.85;;;;;;;;;;4984295;28;20184;-57
2022/06/23 08:35:50;;;;;;;6.28;5.10;;;;;;;;;;4986089;28;20316;-56
2022/06/23 08:38:27;;;;;;;7.38;5.00;;;;;;;;;;4990105;28;20202;-56
2022/06/23 08:41:26;;;;;;;10.02;5.88;;;;;;;;;;4989679;28;20181;-56
2022/06/23 08:44:03;;;;;;;8.65;6.45;;;;;;;;;;4946051;28;20205;-57
2022/06/23 08:46:29;;;;;;;7.97;6.55;;;;;;;;;;4990533;28;20821;-56
2022/06/23 08:49:01;;;;;;;10.55;6.40;;;;;;;;;;4992117;28;20272;-55
2022/06/23 08:51:33;;;;;;;8.13;7.00;;;;;;;;;;4992156;28;20251;-56
2022/06/23 08:54:06;;;;;;;11.68;6.63;;;;;;;;;;4991429;28;20188;-56
2022/06/23 08:56:38;;;;;;;10.40;6.88;;;;;;;;;;4986303;28;20277;-56
2022/06/23 08:59:21;;;;;;;11.48;7.18;;;;;;;;;;4991744;28;20718;-56
2022/06/23 09:01:53;;;;;;;10.13;6.72;;;;;;;;;;4992236;28;20565;-57
2022/06/23 09:04:28;;;;;;;8.63;5.68;;;;;;;;;;4988941;28;20186;-56
2022/06/23 09:07:13;;;;;;;9.43;5.40;;;;;;;;;;4991760;28;20212;-61
2022/06/23 09:09:42;;;;;;;6.28;5.32;;;;;;;;;;4993729;28;20182;-58
2022/06/23 09:12:37;;;;;;;9.00;5.10;;;;;;;;;;4986444;28;20185;-57
2022/06/23 09:15:06;;;;;;;6.32;4.90;;;;;;;;;;4977708;28;20202;-58
2022/06/23 09:17:41;;;;;;;7.13;5.03;;;;;;;;;;4989485;28;20190;-58
2022/06/23 09:20:11;;;;;;;6.13;4.75;;;;;;;;;;4986424;28;20190;-58
2022/06/23 09:22:46;;;;;;;6.35;4.43;;;;;;;;;;4987259;28;20292;-58
2022/06/23 09:25:31;;;;;;;7.43;4.60;;;;;;;;;;4989277;28;20196;-60
2022/06/23 09:28:12;;;;;;;10.65;4.47;;;;;;;;;;4987627;28;20233;-60
2022/06/23 09:30:39;;;;;;;5.03;4.63;;;;;;;;;;4983687;28;20675;-60
2022/06/23 09:33:24;;;;;;;4.72;4.20;;;;;;;;;;4989318;28;20260;-58
2022/06/23 09:36:04;;;;;;;7.10;4.90;;;;;;;;;;4985567;28;20177;-59
2022/06/23 09:38:50;;;;;;;7.20;4.40;;;;;;;;;;4990115;28;20543;-58
2022/06/23 09:41:28;;;;;;;4.88;4.28;;;;;;;;;;4989962;28;20674;-59
2022/06/23 09:43:58;;;;;;;6.93;4.28;;;;;;;;;;4989781;28;20239;-59
2022/06/23 09:46:27;;;;;;;4.60;4.10;;;;;;;;;;4988074;28;20241;-59
2022/06/23 09:49:06;;;;;;;4.60;4.00;;;;;;;;;;4984530;28;20190;-59
2022/06/23 09:51:38;;;;;;;6.28;4.35;;;;;;;;;;4987670;28;20714;-59
2022/06/23 09:54:24;;;;;;;7.20;3.90;;;;;;;;;;4980901;28;20704;-59
2022/06/23 09:56:53;;;;;;;5.47;4.07;;;;;;;;;;4953721;28;20211;-59
2022/06/23 09:59:31;;;;;;;5.13;4.10;;;;;;;;;;4986325;28;20182;-59
2022/06/23 10:02:01;;;;;;;5.40;4.63;;;;;;;;;;4978414;28;20177;-59
2022/06/23 10:04:33;;;;;;;5.35;4.15;;;;;;;;;;4972677;28;20193;-59
2022/06/23 10:07:02;;;;;;;5.75;4.30;;;;;;;;;;4987443;28;20304;-59
2022/06/23 10:09:42;;;;;;;5.95;3.30;;;;;;;;;;4979085;28;20265;-59
2022/06/23 10:12:19;;;;;;;5.72;3.92;;;;;;;;;;4981142;28;20190;-59
2022/06/23 10:14:57;;;;;;;5.72;3.38;;;;;;;;;;4982962;28;20182;-61
2022/06/23 10:17:35;;;;;;;5.18;3.60;;;;;;;;;;4982753;28;20675;-60
2022/06/23 10:20:10;;;;;;;3.30;3.00;;;;;;;;;;4987144;28;20269;-60
2022/06/23 10:23:02;;;;;;;3.72;3.40;;;;;;;;;;4985396;28;20213;-59
2022/06/23 10:25:47;;;;;;;6.40;3.85;;;;;;;;;;4969352;28;20197;-59
2022/06/23 10:28:26;;;;;;;8.68;3.60;;;;;;;;;;4983097;28;20566;-61
2022/06/23 10:30:52;;;;;;;6.47;3.30;;;;;;;;;;4983584;28;20198;-59
2022/06/23 10:33:21;;;;;;;4.88;3.00;;;;;;;;;;4979729;28;20193;-63
2022/06/23 10:35:49;;;;;;;6.97;3.40;;;;;;;;;;4983485;28;20185;-60
2022/06/23 10:38:34;;;;;;;7.63;3.55;;;;;;;;;;4985761;28;20194;-60
2022/06/23 10:41:19;;;;;;;6.75;3.35;;;;;;;;;;4981185;28;20621;-60
2022/06/23 10:43:56;;;;;;;8.27;3.20;;;;;;;;;;4983209;28;20599;-59
2022/06/23 10:46:27;;;;;;;5.43;3.50;;;;;;;;;;4984101;28;20367;-59
2022/06/23 10:49:02;;;;;;;3.20;2.90;;;;;;;;;;4985748;28;20182;-60
2022/06/23 10:51:28;;;;;;;6.57;3.50;;;;;;;;;;4963033;28;20271;-59
2022/06/23 10:54:16;;;;;;;5.07;4.07;;;;;;;;;;4983252;28;20182;-59
2022/06/23 10:57:01;;;;;;;5.60;3.47;;;;;;;;;;4980376;28;20192;-59
2022/06/23 10:59:30;;;;;;;4.85;4.00;;;;;;;;;;4975220;28;20193;-60
2022/06/23 11:02:08;;;;;;;5.22;4.72;;;;;;;;;;4980879;28;20178;-60
2022/06/23 11:04:49;;;;;;;9.18;4.85;;;;;;;;;;4979847;28;20189;-58
2022/06/23 11:07:31;;;;;;;6.47;4.80;;;;;;;;;;4990436;28;20209;-59
2022/06/23 11:10:01;;;;;;;12.98;6.30;;;;;;;;;;4982229;28;20506;-59
2022/06/23 11:12:34;;;;;;;8.30;4.10;;;;;;;;;;4983120;28;20177;-59
2022/06/23 11:14:59;;;;;;;5.28;4.00;;;;;;;;;;4971268;28;20221;-59
2022/06/23 11:17:29;;;;;;;4.25;3.50;;;;;;;;;;4985755;28;20196;-60
2022/06/23 11:20:04;;;;;;;9.65;4.10;;;;;;;;;;4990991;28;20273;-59
2022/06/23 11:22:52;;;;;;;6.55;3.28;;;;;;;;;;4987406;28;20197;-59
2022/06/23 11:25:18;;;;;;;5.22;2.92;;;;;;;;;;4989201;28;20305;-61
2022/06/23 11:27:53;;;;;;;6.47;3.80;;;;;;;;;;4988306;28;20333;-58
2022/06/23 11:30:38;;;;;;;9.55;3.22;;;;;;;;;;4989082;28;20277;-57
2022/06/23 11:33:24;;;;;;;9.00;3.75;;;;;;;;;;4988306;28;20269;-56
2022/06/23 11:36:00;;;;;;;9.05;4.00;;;;;;;;;;4969843;28;20210;-56
2022/06/23 11:38:25;;;;;;;5.75;3.60;;;;;;;;;;4984029;28;20681;-55
2022/06/23 11:41:21;;;;;;;5.43;3.63;;;;;;;;;;4984424;28;20178;-56
2022/06/23 11:44:05;;;;;;;7.03;3.42;;;;;;;;;;4962025;28;20750;-56
2022/06/23 11:46:38;;;;;;;7.63;3.90;;;;;;;;;;4981661;28;20244;-57
2022/06/23 11:49:11;;;;;;;5.65;3.63;;;;;;;;;;4982453;28;20209;-58
2022/06/23 11:51:55;;;;;;;5.30;3.35;;;;;;;;;;4990985;28;20666;-58
2022/06/23 11:54:40;;;;;;;9.20;4.13;;;;;;;;;;4985507;28;20192;-56
2022/06/23 11:57:25;;;;;;;5.03;3.63;;;;;;;;;;4987993;28;20173;-58
2022/06/23 11:59:58;;;;;;;10.25;3.33;;;;;;;;;;4984764;28;20194;-57
2022/06/23 12:02:24;;;;;;;8.18;3.97;;;;;;;;;;4989427;28;20292;-57
2022/06/23 12:05:05;;;;;;;6.82;4.07;;;;;;;;;;4978694;28;20210;-56
2022/06/23 12:07:31;;;;;;;5.00;4.10;;;;;;;;;;4979199;28;20568;-57
2022/06/23 12:10:08;;;;;;;6.03;3.92;;;;;;;;;;4984900;28;20186;-57
2022/06/23 12:12:35;;;;;;;5.57;3.40;;;;;;;;;;4982495;28;20269;-57
2022/06/23 12:15:04;;;;;;;6.50;4.10;;;;;;;;;;4977505;28;20210;-56
2022/06/23 12:17:31;;;;;;;5.78;3.90;;;;;;;;;;4976936;28;20897;-57
2022/06/23 12:20:21;;;;;;;7.70;3.25;;;;;;;;;;4979497;28;20193;-57
2022/06/23 12:23:05;;;;;;;12.38;4.10;;;;;;;;;;4956852;28;20202;-57
2022/06/23 12:25:34;;;;;;;8.15;3.50;;;;;;;;;;4984758;28;20186;-58
2022/06/23 12:28:19;;;;;;;8.20;3.67;;;;;;;;;;4988925;28;20202;-58
2022/06/23 12:30:46;;;;;;;8.18;3.58;;;;;;;;;;4989790;28;20186;-58
2022/06/23 12:33:23;;;;;;;11.20;3.70;;;;;;;;;;4996067;28;20186;-57
2022/06/23 12:35:53;;;;;;;8.32;3.67;;;;;;;;;;4989416;28;20190;-58
2022/06/23 12:38:22;;;;;;;6.47;3.28;;;;;;;;;;4995936;28;20190;-57
2022/06/23 12:41:02;;;;;;;6.60;3.33;;;;;;;;;;4993463;28;20190;-58
2022/06/23 12:43:35;;;;;;;5.85;3.92;;;;;;;;;;4990832;28;20202;-58
2022/06/23 12:46:10;;;;;;;6.10;3.67;;;;;;;;;;4994286;28;20287;-57
2022/06/23 12:48:55;;;;;;;3.95;3.20;;;;;;;;;;4995450;28;20185;-57
2022/06/23 12:51:24;;;;;;;6.65;3.65;;;;;;;;;;4993823;28;20777;-57
2022/06/23 12:54:13;;;;;;;6.45;3.65;;;;;;;;;;4995347;28;20182;-57
2022/06/23 12:56:48;;;;;;;6.32;3.40;;;;;;;;;;4987280;28;20186;-57
2022/06/23 12:59:33;;;;;;;7.95;3.45;;;;;;;;;;4989199;28;20702;-59
2022/06/23 13:02:05;;;;;;;7.55;4.03;;;;;;;;;;4992185;28;20594;-57
2022/06/23 13:05:04;;;;;;;6.55;3.60;;;;;;;;;;4990636;28;20193;-57
2022/06/23 13:07:33;;;;;;;9.13;3.42;;;;;;;;;;4986316;28;20233;-57
2022/06/23 13:10:04;;;;;;;5.53;3.30;;;;;;;;;;4995084;28;20189;-56
2022/06/23 13:12:36;;;;;;;6.20;3.92;;;;;;;;;;4997055;28;20194;-57
2022/06/23 13:15:02;;;;;;;6.97;3.47;;;;;;;;;;4988311;28;20714;-56
2022/06/23 13:17:34;;;;;;;5.68;2.97;;;;;;;;;;4991876;28;20192;-58
2022/06/23 13:20:19;;;;;;;7.43;3.25;;;;;;;;;;4995455;28;20186;-59
2022/06/23 13:23:05;;;;;;;9.10;3.75;;;;;;;;;;4990961;28;20182;-57
2022/06/23 13:25:34;;;;;;;6.80;3.47;;;;;;;;;;4989451;28;20194;-58
2022/06/23 13:28:00;;;;;;;4.25;3.10;;;;;;;;;;4988909;28;20193;-56
2022/06/23 13:30:27;;;;;;;8.10;4.10;;;;;;;;;;4992575;28;20185;-56
2022/06/23 13:32:59;;;;;;;9.85;4.07;;;;;;;;;;4988528;28;20232;-56
2022/06/23 13:35:35;;;;;;;6.90;3.45;;;;;;;;;;4991268;28;20209;-54
2022/06/23 13:38:37;;;;;;;7.57;3.95;;;;;;;;;;4995249;28;20198;-54
2022/06/23 13:41:10;;;;;;;8.50;3.78;;;;;;;;;;4971041;28;20797;-54
2022/06/23 13:43:37;;;;;;;5.80;3.85;;;;;;;;;;4988098;28;20197;-55
2022/06/23 13:46:08;;;;;;;7.97;3.78;;;;;;;;;;4993212;28;20233;-55
2022/06/23 13:48:35;;;;;;;9.20;3.58;;;;;;;;;;4992268;28;20693;-55
2022/06/23 13:51:06;;;;;;;6.07;3.80;;;;;;;;;;4993611;28;20749;-55
2022/06/23 13:53:43;;;;;;;9.20;3.20;;;;;;;;;;4987773;28;20193;-56
2022/06/23 13:56:29;;;;;;;7.22;3.83;;;;;;;;;;4987620;28;20177;-55
2022/06/23 13:58:58;;;;;;;6.32;3.85;;;;;;;;;;4989369;28;20260;-54
2022/06/23 14:01:28;;;;;;;8.52;4.00;;;;;;;;;;4989690;28;20272;-54
2022/06/23 14:03:59;;;;;;;9.00;3.67;;;;;;;;;;4987429;28;20273;-54
2022/06/23 14:06:35;;;;;;;9.05;3.85;;;;;;;;;;4980822;28;20229;-53
2022/06/23 14:09:03;;;;;;;6.65;3.90;;;;;;;;;;4993937;28;20180;-54
2022/06/23 14:11:29;;;;;;;8.80;3.97;;;;;;;;;;4990426;28;20185;-55
2022/06/23 14:14:03;;;;;;;7.07;4.25;;;;;;;;;;4991702;28;20185;-54
2022/06/23 14:16:35;;;;;;;7.68;4.05;;;;;;;;;;4993495;28;20272;-55
2022/06/23 14:19:02;;;;;;;7.70;3.90;;;;;;;;;;4992005;28;20224;-55
2022/06/23 14:22:07;;;;;;;8.15;4.47;;;;;;;;;;4993999;28;20212;-56
2022/06/23 14:24:41;;;;;;;7.28;3.90;;;;;;;;;;4973554;28;20210;-54
2022/06/23 14:27:42;;;;;;;10.75;6.07;;;;;;;;;;4970503;28;21008;-56
2022/06/23 14:30:27;;;;;;;9.73;4.60;;;;;;;;;;4931472;28;20211;-55
2022/06/23 14:32:55;;;;;;;10.32;4.15;;;;;;;;;;4986076;28;20212;-54
2022/06/23 14:35:23;;;;;;;6.05;3.80;;;;;;;;;;4987357;28;20275;-54
2022/06/23 14:37:50;;;;;;;5.13;3.58;;;;;;;;;;4993524;28;20193;-54
2022/06/23 14:40:18;;;;;;;5.28;3.67;;;;;;;;;;4987767;28;20195;-54
2022/06/23 14:42:48;;;;;;;9.70;4.65;;;;;;;;;;4991743;28;20678;-54
2022/06/23 14:45:14;;;;;;;8.30;3.63;;;;;;;;;;4991320;28;20710;-54
2022/06/23 14:47:59;;;;;;;7.80;4.45;;;;;;;;;;4988328;28;20201;-56
2022/06/23 14:50:34;;;;;;;5.50;4.07;;;;;;;;;;4991084;28;20277;-54
2022/06/23 14:53:19;;;;;;;7.95;3.78;;;;;;;;;;4993081;28;20177;-54
2022/06/23 14:56:04;;;;;;;6.68;3.40;;;;;;;;;;4995651;28;20273;-55
2022/06/23 14:58:41;;;;;;;7.22;3.88;;;;;;;;;;4992107;28;20189;-54
2022/06/23 15:01:26;;;;;;;10.05;3.90;;;;;;;;;;4987658;28;20232;-54
2022/06/23 15:03:52;;;;;;;7.22;4.13;;;;;;;;;;4991320;28;20225;-56
2022/06/23 15:06:21;;;;;;;6.80;4.25;;;;;;;;;;4983549;28;20288;-56
2022/06/23 15:09:08;;;;;;;10.23;4.43;;;;;;;;;;4989857;28;20732;-54
2022/06/23 15:11:40;;;;;;;6.87;4.00;;;;;;;;;;4983369;28;20422;-54
2022/06/23 15:14:11;;;;;;;8.30;4.30;;;;;;;;;;4989267;28;20643;-56
2022/06/23 15:16:37;;;;;;;5.53;4.38;;;;;;;;;;4988138;28;20193;-55
2022/06/23 15:19:15;;;;;;;7.47;4.50;;;;;;;;;;4980048;28;20555;-57
2022/06/23 15:24:46;;;;;;;5.88;4.00;;;;;;;;;;4985013;28;20252;-56
2022/06/23 15:27:17;;;;;;;8.32;4.15;;;;;;;;;;4985930;28;22290;-55
2022/06/23 15:30:03;;;;;;;6.57;4.25;;;;;;;;;;4986458;28;20527;-55
2022/06/23 15:32:32;;;;;;;5.80;4.05;;;;;;;;;;4986971;28;20644;-55